Time;durP1;ratioP1;P1;durP2;ratioP2;P2;SDS_P1;SDS_P2;PMS_P1;PMS_P2;Temp;Humidity;BMP_temperature;BMP_pressure;BME280_temperature;BME280_humidity;BME280_pressure;Samples;Min_cycle;Max_cycle;Signal;HPM_P1;HPM_P2
2022/01/12 00:01:37;;;;;;;47.53;15.85;;;;;;;;;;4933904;28;20457;-69
2022/01/12 00:04:03;;;;;;;45.55;14.90;;;;;;;;;;4951725;28;20496;-69
2022/01/12 00:06:28;;;;;;;39.58;15.88;;;;;;;;;;4951328;28;20026;-69
2022/01/12 00:08:54;;;;;;;43.33;14.38;;;;;;;;;;4951865;28;20434;-70
2022/01/12 00:11:21;;;;;;;39.80;13.57;;;;;;;;;;4950329;28;20038;-69
2022/01/12 00:13:47;;;;;;;47.35;13.40;;;;;;;;;;4934343;28;20408;-69
2022/01/12 00:16:12;;;;;;;39.42;14.93;;;;;;;;;;4951174;28;20326;-69
2022/01/12 00:18:37;;;;;;;43.83;15.65;;;;;;;;;;4934624;28;20439;-69
2022/01/12 00:21:03;;;;;;;47.40;14.63;;;;;;;;;;4933516;28;20616;-71
2022/01/12 00:23:29;;;;;;;43.33;15.25;;;;;;;;;;4951807;28;20623;-70
2022/01/12 00:33:52;;;;;;;48.67;14.63;;;;;;;;;;4935868;28;20464;-69
2022/01/12 00:36:18;;;;;;;44.20;14.73;;;;;;;;;;4952176;28;20044;-70
2022/01/12 00:38:44;;;;;;;41.15;15.18;;;;;;;;;;4951164;28;20022;-69
2022/01/12 00:41:09;;;;;;;39.55;13.65;;;;;;;;;;4933793;28;20409;-69
2022/01/12 00:43:37;;;;;;;34.28;14.05;;;;;;;;;;4952087;28;20409;-70
2022/01/12 00:46:03;;;;;;;38.22;14.43;;;;;;;;;;4951618;28;20390;-71
2022/01/12 00:48:28;;;;;;;39.08;13.30;;;;;;;;;;4934279;28;20355;-70
2022/01/12 00:50:54;;;;;;;47.67;13.95;;;;;;;;;;4951710;28;20333;-69
2022/01/12 00:53:19;;;;;;;37.78;13.32;;;;;;;;;;4950808;28;20478;-69
2022/01/12 00:55:44;;;;;;;43.55;13.98;;;;;;;;;;4950980;28;20323;-69
2022/01/12 00:58:10;;;;;;;36.30;13.90;;;;;;;;;;4950633;28;20349;-69
2022/01/12 01:00:35;;;;;;;34.72;13.02;;;;;;;;;;4950027;28;20538;-69
2022/01/12 01:03:01;;;;;;;44.08;13.13;;;;;;;;;;4959814;28;20372;-69
2022/01/12 01:05:29;;;;;;;30.10;12.52;;;;;;;;;;4950971;28;20421;-69
2022/01/12 01:07:55;;;;;;;45.17;14.52;;;;;;;;;;4951295;28;20124;-69
2022/01/12 01:10:39;;;;;;;30.25;12.23;;;;;;;;;;4951571;28;20034;-69
2022/01/12 01:13:05;;;;;;;46.53;13.50;;;;;;;;;;4935646;28;20108;-69
2022/01/12 01:15:54;;;;;;;29.98;11.27;;;;;;;;;;4950847;28;20439;-69
2022/01/12 01:26:31;;;;;;;34.08;11.80;;;;;;;;;;4950454;28;20115;-69
2022/01/12 01:28:56;;;;;;;31.15;12.50;;;;;;;;;;4949857;28;20430;-69
2022/01/12 01:31:28;;;;;;;37.53;12.35;;;;;;;;;;4932395;28;20338;-70
2022/01/12 01:33:54;;;;;;;26.05;10.35;;;;;;;;;;4949992;28;20345;-69
2022/01/12 01:36:19;;;;;;;36.03;11.95;;;;;;;;;;4950338;28;20033;-70
2022/01/12 01:38:45;;;;;;;29.35;11.30;;;;;;;;;;4950015;28;20392;-69
2022/01/12 01:41:10;;;;;;;33.78;11.45;;;;;;;;;;4932548;28;20457;-69
2022/01/12 01:54:14;;;;;;;33.08;11.35;;;;;;;;;;4950175;28;20373;-69
2022/01/12 01:56:39;;;;;;;36.10;12.23;;;;;;;;;;4932290;28;20338;-70
2022/01/12 01:59:05;;;;;;;30.58;10.45;;;;;;;;;;4933031;28;20449;-69
2022/01/12 02:01:31;;;;;;;32.50;11.20;;;;;;;;;;4949658;28;20437;-69
2022/01/12 02:04:00;;;;;;;26.35;11.27;;;;;;;;;;4931798;28;20349;-69
2022/01/12 02:06:26;;;;;;;26.25;10.38;;;;;;;;;;4949824;28;20437;-69
2022/01/12 02:08:51;;;;;;;27.70;12.25;;;;;;;;;;4932122;28;20349;-70
2022/01/12 02:11:17;;;;;;;29.08;10.40;;;;;;;;;;4950145;28;20467;-70
2022/01/12 02:13:42;;;;;;;35.60;11.35;;;;;;;;;;4949494;28;20440;-69
2022/01/12 02:16:07;;;;;;;28.08;10.40;;;;;;;;;;4932002;28;20340;-69
2022/01/12 02:18:42;;;;;;;33.03;11.60;;;;;;;;;;4950958;28;20417;-69
2022/01/12 02:35:33;;;;;;;35.97;11.07;;;;;;;;;;4935777;28;20524;-70
2022/01/12 02:40:39;;;;;;;28.48;10.60;;;;;;;;;;4934651;28;20444;-69
2022/01/12 02:43:16;;;;;;;23.17;9.30;;;;;;;;;;4953797;28;20143;-69
2022/01/12 02:50:41;;;;;;;28.65;10.40;;;;;;;;;;4954739;28;20061;-70
2022/01/12 02:54:13;;;;;;;21.08;8.50;;;;;;;;;;4965885;28;20476;-69
2022/01/12 02:56:38;;;;;;;29.55;10.25;;;;;;;;;;4951344;28;20369;-69
2022/01/12 02:59:06;;;;;;;24.50;9.43;;;;;;;;;;4953551;28;20322;-70
2022/01/12 03:03:59;;;;;;;22.38;9.52;;;;;;;;;;4952950;28;20353;-69
2022/01/12 03:06:28;;;;;;;27.60;9.73;;;;;;;;;;4953215;28;20429;-69
2022/01/12 03:08:54;;;;;;;29.02;9.90;;;;;;;;;;4953059;28;20348;-70
2022/01/12 03:11:21;;;;;;;26.17;9.38;;;;;;;;;;4953526;28;20033;-69
2022/01/12 03:13:47;;;;;;;20.95;8.57;;;;;;;;;;4954503;28;20029;-70
2022/01/12 03:16:14;;;;;;;20.95;7.78;;;;;;;;;;4934738;28;20484;-70
2022/01/12 03:18:41;;;;;;;24.02;8.23;;;;;;;;;;4967692;28;20437;-70
2022/01/12 03:21:07;;;;;;;21.35;8.32;;;;;;;;;;4935872;28;20356;-70
2022/01/12 03:23:32;;;;;;;23.30;9.15;;;;;;;;;;4935164;28;20344;-69
2022/01/12 03:25:58;;;;;;;27.58;9.63;;;;;;;;;;4952614;28;20364;-69
2022/01/12 03:28:23;;;;;;;24.88;8.48;;;;;;;;;;4954057;28;20440;-70
2022/01/12 03:30:55;;;;;;;20.77;7.85;;;;;;;;;;4952134;28;20477;-69
2022/01/12 04:09:00;;;;;;;19.35;7.22;;;;;;;;;;4951987;28;20139;-69
2022/01/12 04:11:25;;;;;;;15.60;7.70;;;;;;;;;;4951429;28;20512;-70
2022/01/12 04:13:52;;;;;;;25.10;8.30;;;;;;;;;;4966521;28;20444;-69
2022/01/12 04:16:17;;;;;;;19.13;7.38;;;;;;;;;;4966467;28;20500;-70
2022/01/12 04:18:43;;;;;;;20.13;7.10;;;;;;;;;;4951309;28;20426;-70
2022/01/12 04:21:09;;;;;;;17.60;6.88;;;;;;;;;;4951750;28;20326;-69
2022/01/12 04:23:36;;;;;;;18.50;7.60;;;;;;;;;;4951412;28;20419;-69
2022/01/12 04:26:10;;;;;;;18.35;7.15;;;;;;;;;;4952122;28;20079;-70
2022/01/12 04:28:38;;;;;;;16.85;7.13;;;;;;;;;;4934774;28;20483;-69
2022/01/12 04:31:04;;;;;;;19.20;6.50;;;;;;;;;;4917701;28;20512;-69
2022/01/12 04:33:30;;;;;;;21.05;7.32;;;;;;;;;;4951520;28;20519;-70
2022/01/12 04:35:56;;;;;;;16.83;6.60;;;;;;;;;;4966035;28;20437;-70
2022/01/12 04:38:29;;;;;;;16.20;6.93;;;;;;;;;;4950864;28;20353;-71
2022/01/12 04:40:55;;;;;;;14.88;6.38;;;;;;;;;;4934491;28;20392;-69
2022/01/12 04:43:22;;;;;;;15.60;6.78;;;;;;;;;;4966023;28;20025;-69
2022/01/12 04:50:43;;;;;;;15.63;7.03;;;;;;;;;;4966499;28;20037;-69
2022/01/12 04:53:10;;;;;;;15.23;6.60;;;;;;;;;;4950616;28;20053;-69
2022/01/12 04:55:35;;;;;;;14.60;6.15;;;;;;;;;;4933269;28;20436;-69
2022/01/12 04:58:01;;;;;;;14.77;6.25;;;;;;;;;;4950801;28;20310;-70
2022/01/12 05:00:27;;;;;;;21.83;7.40;;;;;;;;;;4964849;28;20398;-70
2022/01/12 05:13:34;;;;;;;13.00;5.95;;;;;;;;;;4950682;28;20115;-69
2022/01/12 05:16:01;;;;;;;14.02;6.00;;;;;;;;;;4933863;28;20426;-69
2022/01/12 05:18:27;;;;;;;20.90;6.35;;;;;;;;;;4932545;28;20345;-70
2022/01/12 05:20:53;;;;;;;15.27;6.70;;;;;;;;;;4951255;28;20073;-69
2022/01/12 05:23:18;;;;;;;16.75;7.07;;;;;;;;;;4932684;28;20449;-69
2022/01/12 05:25:46;;;;;;;20.95;8.07;;;;;;;;;;4950450;28;20449;-70
2022/01/12 05:28:12;;;;;;;14.40;5.95;;;;;;;;;;4950512;28;20451;-69
2022/01/12 05:30:37;;;;;;;16.17;5.28;;;;;;;;;;4933792;28;20340;-69
2022/01/12 05:33:02;;;;;;;12.05;6.28;;;;;;;;;;4949966;28;20298;-69
2022/01/12 05:35:32;;;;;;;15.05;5.93;;;;;;;;;;4950288;28;20038;-69
2022/01/12 05:37:58;;;;;;;19.38;6.75;;;;;;;;;;4950084;28;20084;-69
2022/01/12 05:40:24;;;;;;;17.08;6.95;;;;;;;;;;4951028;28;20022;-70
2022/01/12 05:42:51;;;;;;;15.40;6.40;;;;;;;;;;4932642;28;20419;-69
2022/01/12 05:45:18;;;;;;;15.07;6.45;;;;;;;;;;4950114;28;20025;-69
2022/01/12 05:50:10;;;;;;;15.20;6.95;;;;;;;;;;4949816;28;20427;-69
2022/01/12 05:52:35;;;;;;;16.67;7.80;;;;;;;;;;4950721;28;20500;-69
2022/01/12 05:55:02;;;;;;;18.73;6.22;;;;;;;;;;4932249;28;20170;-70
2022/01/12 05:57:31;;;;;;;22.00;7.78;;;;;;;;;;4964315;28;20404;-69
2022/01/12 05:59:57;;;;;;;13.43;5.87;;;;;;;;;;4932065;28;20491;-69
2022/01/12 06:02:22;;;;;;;17.35;6.93;;;;;;;;;;4932710;28;20584;-69
2022/01/12 06:04:47;;;;;;;17.85;7.05;;;;;;;;;;4964980;28;20030;-69
2022/01/12 06:07:13;;;;;;;15.30;6.40;;;;;;;;;;4950457;28;20464;-70
2022/01/12 06:09:38;;;;;;;19.98;7.05;;;;;;;;;;4932503;28;20465;-69
2022/01/12 06:12:04;;;;;;;19.70;8.50;;;;;;;;;;4949480;28;20053;-69
2022/01/12 06:14:30;;;;;;;17.33;7.18;;;;;;;;;;4952473;28;20475;-71
2022/01/12 06:16:55;;;;;;;16.05;7.55;;;;;;;;;;4938701;28;20022;-69
2022/01/12 06:19:20;;;;;;;19.33;7.57;;;;;;;;;;4956165;28;20465;-69
2022/01/12 06:21:46;;;;;;;16.58;7.20;;;;;;;;;;4956105;28;20430;-69
2022/01/12 06:24:11;;;;;;;15.73;6.95;;;;;;;;;;4957014;28;20045;-69
2022/01/12 06:26:37;;;;;;;15.40;7.53;;;;;;;;;;4956240;28;20409;-69
2022/01/12 06:31:47;;;;;;;18.77;6.82;;;;;;;;;;4970322;28;20034;-69
2022/01/12 06:34:13;;;;;;;12.23;6.00;;;;;;;;;;4956117;28;20052;-69
2022/01/12 06:36:38;;;;;;;14.82;6.07;;;;;;;;;;4938838;28;20038;-69
2022/01/12 06:39:12;;;;;;;14.43;6.53;;;;;;;;;;4955768;28;20357;-69
2022/01/12 06:41:39;;;;;;;15.50;6.85;;;;;;;;;;4956058;28;20187;-69
2022/01/12 06:44:06;;;;;;;15.43;6.85;;;;;;;;;;4938622;28;20329;-69
2022/01/12 06:46:32;;;;;;;16.92;6.40;;;;;;;;;;4937935;28;20121;-69
2022/01/12 06:48:58;;;;;;;17.70;6.75;;;;;;;;;;4955906;28;20504;-69
2022/01/12 06:51:23;;;;;;;17.13;7.15;;;;;;;;;;4937931;28;20452;-70
2022/01/12 06:53:49;;;;;;;15.85;6.90;;;;;;;;;;4938321;28;20455;-69
2022/01/12 06:56:17;;;;;;;15.95;6.97;;;;;;;;;;4955873;28;20348;-69
2022/01/12 06:58:43;;;;;;;17.55;6.65;;;;;;;;;;4955687;28;20452;-70
2022/01/12 07:01:08;;;;;;;14.43;6.40;;;;;;;;;;4955289;28;20438;-71
2022/01/12 07:03:33;;;;;;;14.57;7.07;;;;;;;;;;4957259;28;20345;-69
2022/01/12 07:05:59;;;;;;;11.75;6.18;;;;;;;;;;4955359;28;20430;-70
2022/01/12 07:08:24;;;;;;;13.02;5.55;;;;;;;;;;4970181;28;20087;-69
2022/01/12 07:10:49;;;;;;;15.05;6.47;;;;;;;;;;4956394;28;20447;-69
2022/01/12 07:13:15;;;;;;;14.82;6.95;;;;;;;;;;4956998;28;20401;-69
2022/01/12 07:15:41;;;;;;;12.70;6.38;;;;;;;;;;4955458;28;20344;-69
2022/01/12 07:18:07;;;;;;;16.90;6.40;;;;;;;;;;4956589;28;20372;-69
2022/01/12 07:20:33;;;;;;;13.50;6.15;;;;;;;;;;4938279;28;20380;-69
2022/01/12 07:22:58;;;;;;;13.95;6.13;;;;;;;;;;4938338;28;20440;-69
2022/01/12 07:25:24;;;;;;;19.10;7.57;;;;;;;;;;4938206;28;20421;-70
2022/01/12 07:27:49;;;;;;;14.15;6.55;;;;;;;;;;4975142;28;20033;-69
2022/01/12 07:30:14;;;;;;;17.88;6.93;;;;;;;;;;4989628;28;20448;-69
2022/01/12 07:32:40;;;;;;;14.52;7.40;;;;;;;;;;4971938;28;20372;-70
2022/01/12 07:35:06;;;;;;;20.98;8.63;;;;;;;;;;4989122;28;20347;-71
2022/01/12 07:37:31;;;;;;;17.88;8.10;;;;;;;;;;4973167;28;20348;-69
2022/01/12 07:39:57;;;;;;;18.48;7.68;;;;;;;;;;4988543;28;20371;-70
2022/01/12 07:42:23;;;;;;;14.60;7.43;;;;;;;;;;4988537;28;20033;-69
2022/01/12 07:44:48;;;;;;;14.48;7.18;;;;;;;;;;4991249;28;20082;-69
2022/01/12 07:47:14;;;;;;;23.75;7.68;;;;;;;;;;4972863;28;20519;-70
2022/01/12 07:49:39;;;;;;;14.57;7.18;;;;;;;;;;4992636;28;20412;-69
2022/01/12 07:52:05;;;;;;;18.65;7.00;;;;;;;;;;4991524;28;20396;-69
2022/01/12 07:54:30;;;;;;;15.50;7.95;;;;;;;;;;4990614;28;20344;-69
2022/01/12 07:56:56;;;;;;;17.58;6.28;;;;;;;;;;4992578;28;20438;-69
2022/01/12 07:59:21;;;;;;;17.92;7.97;;;;;;;;;;4989936;28;20460;-69
2022/01/12 08:01:46;;;;;;;16.20;7.47;;;;;;;;;;4973581;28;20485;-70
2022/01/12 08:04:12;;;;;;;15.23;6.80;;;;;;;;;;4992664;28;20424;-69
2022/01/12 08:06:37;;;;;;;17.80;7.07;;;;;;;;;;4991158;28;20055;-69
2022/01/12 08:09:02;;;;;;;14.95;7.05;;;;;;;;;;4972801;28;20347;-69
2022/01/12 08:11:29;;;;;;;11.73;6.38;;;;;;;;;;4990756;28;20352;-69
2022/01/12 08:13:54;;;;;;;17.92;7.18;;;;;;;;;;4990988;28;20455;-69
2022/01/12 08:16:20;;;;;;;12.20;6.05;;;;;;;;;;4992111;28;20432;-69
2022/01/12 08:18:45;;;;;;;13.20;6.20;;;;;;;;;;4990596;28;20330;-70
2022/01/12 08:21:11;;;;;;;13.20;6.35;;;;;;;;;;4989201;28;20502;-69
2022/01/12 08:23:36;;;;;;;12.73;6.70;;;;;;;;;;4991074;28;20322;-69
2022/01/12 08:26:01;;;;;;;21.80;6.70;;;;;;;;;;4990707;28;20503;-69
2022/01/12 08:28:27;;;;;;;15.15;6.55;;;;;;;;;;4990464;28;20032;-69
2022/01/12 08:30:52;;;;;;;16.88;6.85;;;;;;;;;;4991174;28;20336;-70
2022/01/12 08:33:17;;;;;;;15.73;7.00;;;;;;;;;;4990907;28;20113;-69
2022/01/12 08:35:43;;;;;;;11.18;5.90;;;;;;;;;;4991366;28;20569;-69
2022/01/12 08:38:08;;;;;;;14.63;6.40;;;;;;;;;;4989775;28;20371;-69
2022/01/12 08:40:37;;;;;;;12.45;6.03;;;;;;;;;;4991099;28;20336;-69
2022/01/12 08:43:03;;;;;;;14.95;6.10;;;;;;;;;;4972907;28;20368;-70
2022/01/12 08:45:28;;;;;;;12.45;5.43;;;;;;;;;;4990343;28;20360;-69
2022/01/12 08:47:54;;;;;;;10.45;5.25;;;;;;;;;;4988564;28;20033;-69
2022/01/12 08:50:19;;;;;;;12.18;5.55;;;;;;;;;;4990304;28;20598;-69
2022/01/12 08:52:46;;;;;;;14.20;6.28;;;;;;;;;;4990300;28;20352;-69
2022/01/12 08:55:12;;;;;;;13.77;6.90;;;;;;;;;;4989944;28;20507;-69
2022/01/12 08:57:38;;;;;;;15.07;5.95;;;;;;;;;;4989881;28;20044;-70
2022/01/12 09:00:05;;;;;;;13.60;7.20;;;;;;;;;;4989789;28;20455;-69
2022/01/12 09:02:30;;;;;;;18.23;7.53;;;;;;;;;;4990154;28;20420;-70
2022/01/12 09:04:58;;;;;;;11.30;6.03;;;;;;;;;;4990942;28;20326;-69
2022/01/12 09:07:23;;;;;;;17.15;5.97;;;;;;;;;;4990692;28;20340;-69
2022/01/12 09:09:49;;;;;;;14.27;6.25;;;;;;;;;;4991138;28;20324;-69
2022/01/12 09:12:14;;;;;;;14.70;6.50;;;;;;;;;;4989921;28;20463;-69
2022/01/12 09:14:39;;;;;;;16.83;7.55;;;;;;;;;;4988488;28;20432;-69
2022/01/12 09:17:12;;;;;;;12.23;5.30;;;;;;;;;;4841866;28;20045;-70
2022/01/12 09:19:37;;;;;;;17.63;7.07;;;;;;;;;;4986980;28;20405;-70
2022/01/12 09:22:03;;;;;;;18.10;7.53;;;;;;;;;;4988351;28;20386;-69
2022/01/12 09:24:28;;;;;;;14.65;6.07;;;;;;;;;;4990539;28;20406;-69
2022/01/12 09:26:53;;;;;;;15.43;5.65;;;;;;;;;;4989607;28;20537;-69
2022/01/12 09:29:18;;;;;;;11.55;5.00;;;;;;;;;;4989762;28;20518;-69
2022/01/12 09:31:44;;;;;;;17.35;6.70;;;;;;;;;;4989943;28;20573;-70
2022/01/12 09:34:09;;;;;;;13.50;6.47;;;;;;;;;;4988262;28;20376;-69
2022/01/12 09:36:34;;;;;;;9.93;5.63;;;;;;;;;;4989615;28;20412;-70
2022/01/12 09:39:00;;;;;;;11.35;5.18;;;;;;;;;;4990904;28;20043;-69
2022/01/12 09:41:27;;;;;;;11.45;5.68;;;;;;;;;;4971539;28;20029;-69
2022/01/12 09:43:53;;;;;;;14.18;6.25;;;;;;;;;;4972187;28;20351;-70
2022/01/12 09:46:19;;;;;;;13.45;5.00;;;;;;;;;;4971876;28;20318;-69
2022/01/12 09:48:45;;;;;;;16.25;5.75;;;;;;;;;;4990120;28;20052;-69
2022/01/12 09:51:10;;;;;;;15.50;6.57;;;;;;;;;;4988876;28;20444;-69
2022/01/12 09:53:37;;;;;;;14.43;6.68;;;;;;;;;;4988158;28;20083;-69
2022/01/12 09:56:23;;;;;;;14.23;6.00;;;;;;;;;;4989394;28;20448;-70
2022/01/12 09:58:53;;;;;;;14.18;6.28;;;;;;;;;;4989607;28;20363;-69
2022/01/12 10:01:31;;;;;;;13.90;6.93;;;;;;;;;;4987451;28;20432;-69
2022/01/12 10:04:10;;;;;;;12.98;6.13;;;;;;;;;;4988012;28;20367;-70
2022/01/12 10:06:43;;;;;;;10.68;5.95;;;;;;;;;;4989207;28;20352;-69
2022/01/12 10:09:09;;;;;;;15.02;5.80;;;;;;;;;;4971323;28;20455;-69
2022/01/12 10:11:34;;;;;;;11.75;5.43;;;;;;;;;;4972466;28;20424;-69
2022/01/12 10:14:02;;;;;;;11.98;6.05;;;;;;;;;;4988122;28;20336;-69
2022/01/12 10:16:27;;;;;;;10.40;5.50;;;;;;;;;;4987831;28;20051;-69
2022/01/12 10:18:58;;;;;;;12.30;5.97;;;;;;;;;;4989215;28;20025;-69
2022/01/12 10:21:37;;;;;;;11.57;5.25;;;;;;;;;;4990223;28;20028;-69
2022/01/12 10:24:07;;;;;;;11.60;5.53;;;;;;;;;;4988811;28;20029;-69
2022/01/12 10:26:33;;;;;;;;;;;;;;;;;;4955506;28;20317;-70
2022/01/12 10:29:05;;;;;;;10.15;5.18;;;;;;;;;;4990027;28;20371;-69
2022/01/12 10:32:00;;;;;;;13.38;5.35;;;;;;;;;;4988663;28;20424;-69
2022/01/12 10:34:27;;;;;;;14.55;5.80;;;;;;;;;;4970816;28;20040;-70
2022/01/12 10:36:54;;;;;;;12.57;5.85;;;;;;;;;;4970981;28;20344;-69
2022/01/12 10:39:23;;;;;;;14.18;6.00;;;;;;;;;;4989062;28;20329;-70
2022/01/12 10:42:22;;;;;;;9.20;4.95;;;;;;;;;;4955037;28;20359;-69
2022/01/12 10:44:55;;;;;;;14.63;6.82;;;;;;;;;;4989300;28;20432;-70
2022/01/12 10:47:29;;;;;;;11.50;5.88;;;;;;;;;;4970665;28;20428;-69
2022/01/12 10:49:55;;;;;;;11.73;5.30;;;;;;;;;;4971133;28;20339;-69
2022/01/12 10:52:25;;;;;;;10.60;5.13;;;;;;;;;;4988539;28;20340;-70
2022/01/12 10:54:53;;;;;;;10.73;5.10;;;;;;;;;;4988853;28;20033;-69
2022/01/12 10:57:22;;;;;;;12.27;6.07;;;;;;;;;;4987193;28;20340;-70
2022/01/12 11:00:10;;;;;;;13.95;5.35;;;;;;;;;;4971025;28;20094;-70
2022/01/12 11:02:38;;;;;;;12.13;5.00;;;;;;;;;;4992302;28;20037;-71
2022/01/12 11:05:05;;;;;;;9.00;4.85;;;;;;;;;;4992393;28;20568;-69
2022/01/12 11:07:30;;;;;;;14.05;6.18;;;;;;;;;;4992101;28;20096;-70
2022/01/12 11:09:58;;;;;;;9.65;5.30;;;;;;;;;;4992196;28;20047;-70
2022/01/12 11:12:24;;;;;;;14.82;5.57;;;;;;;;;;4991337;28;20451;-69
2022/01/12 11:14:50;;;;;;;15.45;5.72;;;;;;;;;;4992256;28;20436;-70
2022/01/12 11:17:16;;;;;;;39.78;11.50;;;;;;;;;;4992376;28;20474;-70
2022/01/12 11:19:50;;;;;;;16.13;6.63;;;;;;;;;;4990819;28;20021;-70
2022/01/12 11:22:27;;;;;;;16.30;6.97;;;;;;;;;;4974980;28;20128;-70
2022/01/12 11:24:54;;;;;;;20.63;6.18;;;;;;;;;;4973806;28;20371;-69
2022/01/12 11:27:22;;;;;;;20.75;7.57;;;;;;;;;;4991690;28;20309;-71
2022/01/12 11:29:48;;;;;;;22.27;7.32;;;;;;;;;;4990457;28;20377;-70
2022/01/12 11:32:22;;;;;;;20.10;7.10;;;;;;;;;;4990205;28;20352;-70
2022/01/12 11:34:58;;;;;;;17.13;6.90;;;;;;;;;;4990721;28;20360;-70
2022/01/12 11:37:24;;;;;;;18.17;7.32;;;;;;;;;;4991694;28;20471;-70
2022/01/12 11:39:49;;;;;;;15.50;5.90;;;;;;;;;;4991791;28;20033;-70
2022/01/12 11:42:16;;;;;;;20.95;7.57;;;;;;;;;;4991184;28;20344;-70
2022/01/12 11:44:41;;;;;;;20.17;7.38;;;;;;;;;;4990435;28;20364;-70
2022/01/12 11:47:12;;;;;;;20.70;6.20;;;;;;;;;;4973722;28;20401;-71
2022/01/12 11:49:37;;;;;;;18.30;5.97;;;;;;;;;;4990300;28;20470;-70
2022/01/12 11:52:19;;;;;;;15.73;6.05;;;;;;;;;;4992105;28;20417;-69
2022/01/12 11:54:47;;;;;;;15.85;6.63;;;;;;;;;;4989967;28;20440;-70
2022/01/12 11:57:18;;;;;;;14.73;6.10;;;;;;;;;;4989724;28;20060;-70
2022/01/12 11:59:55;;;;;;;19.50;6.88;;;;;;;;;;4992437;28;20410;-70
2022/01/12 12:02:32;;;;;;;18.50;6.10;;;;;;;;;;4972953;28;20391;-70
2022/01/12 12:05:00;;;;;;;18.55;7.70;;;;;;;;;;4973279;28;20448;-70
2022/01/12 12:07:26;;;;;;;14.60;6.03;;;;;;;;;;4992486;28;20505;-70
2022/01/12 12:09:58;;;;;;;13.68;6.28;;;;;;;;;;4991027;28;20488;-70
2022/01/12 12:12:28;;;;;;;16.30;6.10;;;;;;;;;;4972682;28;20024;-69
2022/01/12 12:14:57;;;;;;;8.90;4.70;;;;;;;;;;4989402;28;20025;-70
2022/01/12 12:17:25;;;;;;;12.35;6.40;;;;;;;;;;4973536;28;20025;-70
2022/01/12 12:19:51;;;;;;;15.80;6.53;;;;;;;;;;4974206;28;20355;-70
2022/01/12 12:22:19;;;;;;;18.38;7.45;;;;;;;;;;4989457;28;20329;-70
2022/01/12 12:24:47;;;;;;;14.98;5.50;;;;;;;;;;4972921;28;20359;-70
2022/01/12 12:27:20;;;;;;;12.80;5.45;;;;;;;;;;4973082;28;20340;-70
2022/01/12 12:29:45;;;;;;;16.17;6.07;;;;;;;;;;4972851;28;20420;-70
2022/01/12 12:32:13;;;;;;;11.85;6.35;;;;;;;;;;4991105;28;20459;-70
2022/01/12 12:34:40;;;;;;;13.10;6.05;;;;;;;;;;4989117;28;20493;-70
2022/01/12 12:37:08;;;;;;;15.73;5.75;;;;;;;;;;4990986;28;20661;-70
2022/01/12 12:39:36;;;;;;;14.52;5.88;;;;;;;;;;4990330;28;20503;-70
2022/01/12 12:42:04;;;;;;;18.67;7.10;;;;;;;;;;4989037;28;20029;-70
2022/01/12 12:44:31;;;;;;;13.23;5.68;;;;;;;;;;4972963;28;20409;-70
2022/01/12 12:47:08;;;;;;;16.80;6.20;;;;;;;;;;4988791;28;20432;-70
2022/01/12 12:49:53;;;;;;;15.70;5.97;;;;;;;;;;4988979;28;20589;-70
2022/01/12 12:52:25;;;;;;;13.07;5.63;;;;;;;;;;4989724;28;20329;-70
2022/01/12 12:54:50;;;;;;;14.25;6.05;;;;;;;;;;4990684;28;20421;-70
2022/01/12 12:57:21;;;;;;;11.45;5.57;;;;;;;;;;4988692;28;20123;-70
2022/01/12 13:00:07;;;;;;;15.27;6.57;;;;;;;;;;4990486;28;20394;-70
2022/01/12 13:02:37;;;;;;;13.85;6.00;;;;;;;;;;4989730;28;20064;-70
2022/01/12 13:05:07;;;;;;;13.07;5.88;;;;;;;;;;4990203;28;20178;-71
2022/01/12 13:07:38;;;;;;;10.63;5.43;;;;;;;;;;4972170;28;20391;-70
2022/01/12 13:10:13;;;;;;;14.07;6.25;;;;;;;;;;4971901;28;20033;-70
2022/01/12 13:12:39;;;;;;;14.40;6.00;;;;;;;;;;4972213;28;20110;-70
2022/01/12 13:15:10;;;;;;;12.43;6.00;;;;;;;;;;4989713;28;20298;-70
2022/01/12 13:17:38;;;;;;;11.43;5.28;;;;;;;;;;4989844;28;20455;-70
2022/01/12 13:22:33;;;;;;;13.40;4.88;;;;;;;;;;4990006;28;20045;-70
2022/01/12 13:24:59;;;;;;;10.90;5.00;;;;;;;;;;4971380;28;20052;-69
2022/01/12 13:27:26;;;;;;;12.85;5.03;;;;;;;;;;4986040;28;20349;-71
2022/01/12 13:29:52;;;;;;;13.15;5.60;;;;;;;;;;4985713;28;20033;-70
2022/01/12 13:32:18;;;;;;;14.88;5.30;;;;;;;;;;4987242;28;20413;-70
2022/01/12 13:35:08;;;;;;;16.23;6.43;;;;;;;;;;4970640;28;20321;-70
2022/01/12 13:37:34;;;;;;;12.55;5.38;;;;;;;;;;4970564;28;20025;-70
2022/01/12 13:40:10;;;;;;;13.85;5.95;;;;;;;;;;4988459;28;20077;-69
2022/01/12 13:42:51;;;;;;;19.30;6.68;;;;;;;;;;4987634;28;20355;-70
2022/01/12 13:45:22;;;;;;;11.98;5.63;;;;;;;;;;4971676;28;20424;-71
2022/01/12 13:47:56;;;;;;;11.93;5.43;;;;;;;;;;4989815;28;20051;-70
2022/01/12 13:50:30;;;;;;;12.57;6.13;;;;;;;;;;4987757;28;20478;-70
2022/01/12 13:52:56;;;;;;;11.35;6.40;;;;;;;;;;4972120;28;20396;-70
2022/01/12 13:55:22;;;;;;;17.27;8.07;;;;;;;;;;4971757;28;20434;-70
2022/01/12 13:58:05;;;;;;;13.63;6.97;;;;;;;;;;4988223;28;20086;-71
2022/01/12 14:00:31;;;;;;;14.15;5.35;;;;;;;;;;4987307;28;20468;-70
2022/01/12 14:02:56;;;;;;;13.57;6.90;;;;;;;;;;4971602;28;20041;-70
2022/01/12 14:05:28;;;;;;;17.30;6.25;;;;;;;;;;4987157;28;20506;-70
2022/01/12 14:08:04;;;;;;;15.57;5.55;;;;;;;;;;4988972;28;20056;-70
2022/01/12 14:10:30;;;;;;;16.17;6.07;;;;;;;;;;4989157;28;20321;-70
2022/01/12 14:12:55;;;;;;;16.73;7.30;;;;;;;;;;4987316;28;20052;-70
2022/01/12 14:15:23;;;;;;;14.73;6.13;;;;;;;;;;4989171;28;20415;-70
2022/01/12 14:17:49;;;;;;;18.92;7.70;;;;;;;;;;4987260;28;20362;-70
2022/01/12 14:20:23;;;;;;;10.45;5.63;;;;;;;;;;4989101;28;20394;-70
2022/01/12 14:22:51;;;;;;;15.50;7.63;;;;;;;;;;4987870;28;20481;-70
2022/01/12 14:25:18;;;;;;;19.08;7.15;;;;;;;;;;4988975;28;20352;-70
2022/01/12 14:27:51;;;;;;;16.17;7.25;;;;;;;;;;4971275;28;20383;-70
2022/01/12 14:30:18;;;;;;;18.83;8.07;;;;;;;;;;4988995;28;20360;-70
2022/01/12 14:32:44;;;;;;;15.23;6.47;;;;;;;;;;4971367;28;20044;-70
2022/01/12 14:35:13;;;;;;;16.52;6.88;;;;;;;;;;4987923;28;20344;-71
2022/01/12 14:37:38;;;;;;;19.33;7.65;;;;;;;;;;4974662;28;20363;-70
2022/01/12 14:40:05;;;;;;;17.13;8.10;;;;;;;;;;4993417;28;20312;-70
2022/01/12 14:42:42;;;;;;;18.05;8.20;;;;;;;;;;4991437;28;20360;-70
2022/01/12 14:45:13;;;;;;;17.35;7.45;;;;;;;;;;4974943;28;20348;-70
2022/01/12 14:47:39;;;;;;;17.25;7.32;;;;;;;;;;4990990;28;20390;-71
2022/01/12 14:50:05;;;;;;;23.58;8.90;;;;;;;;;;4991743;28;20401;-70
2022/01/12 14:52:30;;;;;;;22.38;8.48;;;;;;;;;;4974744;28;20486;-70
2022/01/12 14:54:55;;;;;;;21.40;8.85;;;;;;;;;;4990976;28;20347;-70
2022/01/12 14:57:21;;;;;;;18.48;7.40;;;;;;;;;;4992844;28;20052;-71
2022/01/12 14:59:46;;;;;;;18.75;7.80;;;;;;;;;;4993746;28;20324;-70
2022/01/12 15:02:11;;;;;;;20.27;8.90;;;;;;;;;;4992473;28;20349;-70
2022/01/12 15:04:37;;;;;;;19.65;8.43;;;;;;;;;;4992167;28;20453;-69
2022/01/12 15:07:02;;;;;;;21.95;8.75;;;;;;;;;;4992694;28;20036;-73
2022/01/12 15:09:27;;;;;;;19.33;7.50;;;;;;;;;;4993687;28;20124;-71
2022/01/12 15:11:53;;;;;;;23.35;9.23;;;;;;;;;;4993132;28;20625;-70
2022/01/12 15:14:32;;;;;;;19.30;9.20;;;;;;;;;;4994208;28;20416;-70
2022/01/12 15:16:58;;;;;;;;;;;;;;;;;;4954887;28;20424;-70
2022/01/12 15:19:23;;;;;;;22.88;8.05;;;;;;;;;;4990740;28;20349;-70
2022/01/12 15:21:48;;;;;;;17.98;7.38;;;;;;;;;;4992142;28;20039;-70
2022/01/12 15:24:14;;;;;;;17.08;8.80;;;;;;;;;;4991739;28;20107;-70
2022/01/12 15:26:39;;;;;;;13.52;6.82;;;;;;;;;;4974163;28;20417;-70
2022/01/12 15:29:05;;;;;;;24.48;9.52;;;;;;;;;;4990633;28;20330;-70
2022/01/12 15:31:30;;;;;;;32.47;10.25;;;;;;;;;;4935145;28;20357;-70
2022/01/12 15:33:55;;;;;;;22.05;9.25;;;;;;;;;;4963659;28;20428;-70
2022/01/12 15:36:21;;;;;;;25.63;10.35;;;;;;;;;;4990220;28;20319;-70
2022/01/12 15:38:46;;;;;;;30.90;10.13;;;;;;;;;;4991822;28;20344;-70
2022/01/12 15:41:11;;;;;;;26.40;10.00;;;;;;;;;;4992390;28;20428;-70
2022/01/12 15:43:36;;;;;;;22.45;8.88;;;;;;;;;;4990673;28;20302;-70
2022/01/12 15:46:02;;;;;;;26.70;10.80;;;;;;;;;;4990092;28;20509;-70
2022/01/12 15:48:27;;;;;;;26.80;11.30;;;;;;;;;;4990685;28;20349;-70
2022/01/12 15:50:53;;;;;;;24.33;11.02;;;;;;;;;;4991452;28;20463;-70
2022/01/12 15:53:18;;;;;;;19.58;9.32;;;;;;;;;;4991477;28;20051;-70
2022/01/12 15:55:43;;;;;;;37.92;11.63;;;;;;;;;;4991701;28;20474;-70
2022/01/12 15:58:10;;;;;;;32.92;12.73;;;;;;;;;;4990714;28;20104;-70
2022/01/12 16:00:38;;;;;;;38.45;13.50;;;;;;;;;;4991289;28;20463;-69
2022/01/12 16:03:04;;;;;;;31.67;12.05;;;;;;;;;;4992219;28;20352;-69
2022/01/12 16:05:29;;;;;;;30.65;11.25;;;;;;;;;;4991362;28;20493;-70
2022/01/12 16:07:54;;;;;;;42.20;13.75;;;;;;;;;;4991325;28;20448;-69
2022/01/12 16:10:22;;;;;;;40.72;14.73;;;;;;;;;;4989623;28;20470;-69
2022/01/12 16:12:47;;;;;;;42.13;14.35;;;;;;;;;;4991698;28;20051;-70
2022/01/12 16:15:13;;;;;;;52.42;20.00;;;;;;;;;;4992358;28;20452;-70
2022/01/12 16:17:45;;;;;;;42.30;15.73;;;;;;;;;;4990902;28;20025;-70
2022/01/12 16:20:10;;;;;;;44.58;16.70;;;;;;;;;;4991224;28;20332;-69
2022/01/12 16:22:35;;;;;;;45.35;18.95;;;;;;;;;;4989711;28;20084;-70